Nearby METAR Reports

 

KC09 - Morris-Washburn, Illinois, USA
Distance from station: NW 9mi, 14km
Updated: Thu, 27-Apr-2017 3:55am CDT
Rain, Overcast
Rain, Overcast
 Wind from S
Wind: S 9 mph , 15 km/h
Temperature: 59°F , 15°C
Dew Point: 57°F , 14°C
Humidity: 94%
Barometer: 29.32 inHg , 992.9 hPa
Summary: Rain
Clouds: Overcast
Visibility: 10 miles , 16 km
Cloud details: Mostly cloudy 1100 ft
Overcast 1600 ft
2017/04/27 08:55 KC09 270855Z AUTO 19008KT 10SM RA BKN011 OVC016 15/14 A2932 RMK AO2 P0008 60011 T01460136
KJOT - Joliet, Illinois, USA
Distance from station: NNE 13mi, 22km
Updated: Thu, 27-Apr-2017 3:55am CDT
Light rain, Overcast
Light rain, Overcast
 Wind from SSW
Wind: SSW 12 mph , 19 km/h, Gust: 17 mph , 28 km/h
Temperature: 61°F , 16°C
Dew Point: 59°F , 15°C
Humidity: 94%
Barometer: 29.33 inHg , 993.2 hPa
Summary: Light rain
Clouds: Overcast
Visibility: 7 miles , 11 km
Cloud details: Mostly cloudy 1100 ft
Overcast 1900 ft
2017/04/27 08:55 KJOT 270855Z AUTO 20010G15KT 7SM -RA BKN011 OVC019 16/15 A2933 RMK AO2 P0003 60008 T01550147
 
KLOT - Romeoville/Chi, Illinois, USA
Distance from station: NNE 21mi, 33km
Updated: Thu, 27-Apr-2017 3:55am CDT
Rain, Overcast
Rain, Overcast
 Wind from S
Wind: S 17 mph , 28 km/h, Gust: 25 mph , 41 km/h
Temperature: 59°F , 15°C
Dew Point: 59°F , 15°C
Humidity: 100%
Barometer: 29.32 inHg , 992.9 hPa
Summary: Rain
Clouds: Overcast
Visibility: 7 miles , 11 km
Cloud details: Partly cloudy 1200 ft
Mostly cloudy 2600 ft
Overcast 5500 ft
2017/04/27 08:55 KLOT 270855Z AUTO 19015G22KT 7SM RA SCT012 BKN026 OVC055 15/15 A2932 RMK AO2 P0002 60006 T01460146
KIKK - Kankakee, Illinois, USA
Distance from station: SE 30mi, 48km
Updated: Thu, 27-Apr-2017 3:55am CDT
Overcast
Overcast
 Wind from S
Wind: S 15 mph , 24 km/h, Gust: 22 mph , 35 km/h
Temperature: 57°F , 14°C
Dew Point: 57°F , 14°C
Humidity: 100%
Barometer: 29.34 inHg , 993.6 hPa
Clouds: Overcast
Visibility: 10 miles , 16 km
Cloud details: Partly cloudy 5000 ft
Partly cloudy 8000 ft
Overcast 9500 ft
2017/04/27 08:55 KIKK 270855Z AUTO 17013G19KT 10SM SCT050 SCT080 OVC095 14/14 A2934 RMK AO2 60001 T01400136
 
KARR - Chicago/Aurora, Illinois, USA
Distance from station: NNW 31mi, 50km
Updated: Thu, 27-Apr-2017 3:59am CDT
Rain, Mist, Overcast
Rain, Mist, Overcast
 Wind from SSW
Wind: SSW 15 mph , 24 km/h
Temperature: 59°F , 15°C
Dew Point: 57°F , 14°C
Humidity: 94%
Barometer: 29.30 inHg , 992.2 hPa
Summary: Rain, Mist
Clouds: Overcast
Visibility: 4 miles , 6 km
Cloud details: Partly cloudy 900 ft
Mostly cloudy 1400 ft
Overcast 1800 ft
2017/04/27 08:59 KARR 270859Z AUTO 20013KT 4SM RA BR SCT009 BKN014 OVC018 15/14 A2930 RMK AO2 P0002 T01500139
KPNT - Pontiac, Illinois, USA
Distance from station: SSW 34mi, 54km
Updated: Thu, 27-Apr-2017 3:55am CDT
Heavy rain, Overcast
Heavy rain, Overcast
 Wind from W
Wind: W 20 mph , 31 km/h, Gust: 23 mph , 37 km/h
Temperature: 57°F , 14°C
Dew Point: 55°F , 13°C
Humidity: 94%
Barometer: 29.36 inHg , 994.2 hPa
Summary: Heavy rain
Clouds: Overcast
Visibility: 4 miles , 6 km
Cloud details: Partly cloudy 500 ft
Mostly cloudy 1100 ft
Overcast 4200 ft
2017/04/27 08:55 KPNT 270855Z AUTO 28017G20KT 4SM +RA SCT005 BKN011 OVC042 14/13 A2936 RMK AO2 P0008 60013 T01350132
 
KDPA - Chicago/Dupage, Illinois, USA
Distance from station: N 40mi, 64km
Updated: Thu, 27-Apr-2017 3:52am CDT
Light rain, Overcast
Light rain, Overcast
 Wind from S
Wind: S 18 mph , 30 km/h, Gust: 26 mph , 43 km/h
Temperature: 59°F , 15°C
Dew Point: 57°F , 14°C
Humidity: 94%
Barometer: 29.30 inHg , 992.2 hPa
Summary: Light rain
Clouds: Overcast
Visibility: 9 miles , 14 km
Cloud details: Mostly cloudy 1200 ft
Overcast 2100 ft
2017/04/27 08:52 KDPA 270852Z AUTO 18016G23KT 9SM -RA BKN012 OVC021 15/14 A2930 RMK AO2 SLP919 P0004 60010 T01500144 56029
KIGQ - Chicago/Lansing, Illinois, USA
Distance from station: ENE 42mi, 67km
Updated: Thu, 27-Apr-2017 3:55am CDT
Light rain, Overcast
Light rain, Overcast
 Wind from S
Wind: S 17 mph , 28 km/h
Temperature: 59°F , 15°C
Dew Point: 59°F , 15°C
Humidity: 100%
Barometer: 29.35 inHg , 993.9 hPa
Summary: Light rain
Clouds: Overcast
Visibility: 10 miles , 16 km
Cloud details: Partly cloudy 1500 ft
Partly cloudy 3300 ft
Overcast 9000 ft
2017/04/27 08:55 KIGQ 270855Z AUTO 18015KT 10SM -RA SCT015 SCT033 OVC090 15/15 A2935 RMK AO2 T01500145
 
KMDW - Chicago, Illinois, USA
Distance from station: NE 42mi, 67km
Updated: Thu, 27-Apr-2017 3:53am CDT
Light rain, Overcast
Light rain, Overcast
 Wind from S
Wind: S 12 mph , 19 km/h, Gust: 22 mph , 35 km/h
Temperature: 61°F , 16°C
Dew Point: 57°F , 14°C
Humidity: 88%
Barometer: 29.33 inHg , 993.2 hPa
Summary: Light rain
Clouds: Overcast
Visibility: 10 miles , 16 km
Cloud details: Partly cloudy 1400 ft
Mostly cloudy 2000 ft
Overcast 2600 ft
2017/04/27 08:53 KMDW 270853Z 18010G19KT 10SM -RA SCT014 BKN020 OVC026 16/14 A2933 RMK AO2 SLP923 P0001 60002 T01610144 56029 $
KVYS - Peru, Illinois, USA
Distance from station: W 44mi, 71km
Updated: Thu, 27-Apr-2017 3:55am CDT
Light drizzle, Overcast
Light drizzle, Overcast
 Wind from WNW
Wind: WNW 18 mph , 30 km/h
Temperature: 46°F , 8°C
Wind Chill: 39°F , 4°C
Dew Point: 45°F , 7°C
Humidity: 93%
Barometer: 29.37 inHg , 994.6 hPa
Summary: Light Drizzle
Clouds: Overcast
Visibility: 5 miles , 8 km
Cloud details: Mostly cloudy 600 ft
Mostly cloudy 1400 ft
Overcast 1900 ft
2017/04/27 08:55 KVYS 270855Z AUTO 30016KT 5SM -DZ BKN006 BKN014 OVC019 08/07 A2937 RMK AO2 P0005 60013 T00780069
 
KDKB - De Kalb, Illinois, USA
Distance from station: NNW 46mi, 74km
Updated: Thu, 27-Apr-2017 3:55am CDT
Rain, Overcast
Rain, Overcast
 Wind from WNW
Wind: WNW 13 mph , 20 km/h, Gust: 17 mph , 28 km/h
Temperature: 50°F , 10°C
Wind Chill: 45°F , 7°C
Dew Point: 50°F , 10°C
Humidity: 100%
Barometer: 29.33 inHg , 993.2 hPa
Summary: Rain
Clouds: Overcast
Visibility: 3 miles , 5 km
Cloud details: Overcast 400 ft
2017/04/27 08:55 KDKB 270855Z AUTO 29011G15KT 3SM RA OVC004 10/10 A2933 RMK AO2 P0004 60010 T01020099
KORD - Chicago O'hare, Illinois, USA
Distance from station: NNE 48mi, 78km
Updated: Thu, 27-Apr-2017 3:51am CDT
Light rain, Overcast
Light rain, Overcast
 Wind from S
Wind: S 16 mph , 26 km/h, Gust: 23 mph , 37 km/h
Temperature: 61°F , 16°C
Dew Point: 57°F , 14°C
Humidity: 88%
Barometer: 29.31 inHg , 992.5 hPa
Summary: Light rain
Clouds: Overcast
Visibility: 10 miles , 16 km
Cloud details: Partly cloudy 1300 ft
Mostly cloudy 1800 ft
Overcast 3400 ft
2017/04/27 08:51 KORD 270851Z 17014G20KT 10SM -RA SCT013 BKN018 OVC034 16/14 A2931 RMK AO2 SLP921 P0002 60005 T01560139 58028
 
KGYY - Gary Regional, Indiana, USA
Distance from station: ENE 49mi, 80km
Updated: Thu, 27-Apr-2017 3:55am CDT
Light rain, Overcast
Light rain, Overcast
 Wind from S
Wind: S 10 mph , 17 km/h, Gust: 18 mph , 30 km/h
Temperature: 61°F , 16°C
Dew Point: 57°F , 14°C
Humidity: 88%
Barometer: 29.35 inHg , 993.9 hPa
Summary: Light rain
Clouds: Overcast
Visibility: 10 miles , 16 km
Cloud details: Partly cloudy 1800 ft
Overcast 9000 ft
2017/04/27 08:55 KGYY 270855Z AUTO 17009G16KT 140V200 10SM -RA SCT018 OVC090 16/14 A2935 RMK AO2 60001 T01630140